Time,TemperatureF,DewpointF,PressureIn,WindDirection,WindDirectionDegrees,WindSpeedMPH,WindSpeedGustMPH,Humidity,HourlyPrecipIn,Conditions,Clouds,dailyrainin,SoftwareType,DateUTC
2013-02-10 00:00:00,8.0,7.0,-100.00,WNW,288,5.0,13.0,93,-99.99,,,-99.99,,2013-02-10 07:00:00,
2013-02-10 00:32:00,8.0,7.0,-100.00,WNW,288,5.0,13.0,93,-99.99,,,-99.99,,2013-02-10 07:32:00,
2013-02-10 00:42:00,8.0,7.0,-100.00,WNW,288,5.0,13.0,93,-99.99,,,-99.99,,2013-02-10 07:42:00,
2013-02-10 00:52:00,8.0,7.0,-100.00,WNW,288,5.0,13.0,93,-99.99,,,-99.99,,2013-02-10 07:52:00,
2013-02-10 02:00:00,9.0,6.0,-100.00,WNW,296,4.0,10.0,89,-99.99,,,-99.99,,2013-02-10 09:00:00,
2013-02-10 02:32:00,9.0,6.0,-100.00,WNW,296,4.0,10.0,89,-99.99,,,-99.99,,2013-02-10 09:32:00,
2013-02-10 02:42:00,9.0,6.0,-100.00,WNW,296,4.0,10.0,89,-99.99,,,-99.99,,2013-02-10 09:42:00,
2013-02-10 02:52:00,9.0,6.0,-100.00,WNW,296,4.0,10.0,89,-99.99,,,-99.99,,2013-02-10 09:52:00,
2013-02-10 04:00:00,8.0,7.0,-100.00,NW,315,3.0,6.0,93,-99.99,,,-99.99,,2013-02-10 11:00:00,
2013-02-10 04:32:00,8.0,7.0,-100.00,NW,315,3.0,6.0,93,-99.99,,,-99.99,,2013-02-10 11:32:00,
2013-02-10 04:42:00,8.0,7.0,-100.00,NW,315,3.0,6.0,93,-99.99,,,-99.99,,2013-02-10 11:42:00,
2013-02-10 04:52:00,8.0,7.0,-100.00,NW,315,3.0,6.0,93,-99.99,,,-99.99,,2013-02-10 11:52:00,
2013-02-10 08:00:00,7.0,6.0,-100.00,NW,317,2.0,5.0,95,-99.99,,,-99.99,,2013-02-10 15:00:00,
2013-02-10 08:32:00,7.0,6.0,-100.00,NW,317,2.0,5.0,95,-99.99,,,-99.99,,2013-02-10 15:32:00,
2013-02-10 08:42:00,7.0,6.0,-100.00,NW,317,2.0,5.0,95,-99.99,,,-99.99,,2013-02-10 15:42:00,
2013-02-10 08:52:00,7.0,6.0,-100.00,NW,317,2.0,5.0,95,-99.99,,,-99.99,,2013-02-10 15:52:00,
2013-02-10 10:00:00,12.0,10.0,-100.00,NNW,328,2.0,4.0,90,-99.99,,,-99.99,,2013-02-10 17:00:00,
2013-02-10 10:32:00,12.0,10.0,-100.00,NNW,328,2.0,4.0,90,-99.99,,,-99.99,,2013-02-10 17:32:00,
2013-02-10 10:42:00,12.0,10.0,-100.00,NNW,328,2.0,4.0,90,-99.99,,,-99.99,,2013-02-10 17:42:00,
2013-02-10 10:52:00,12.0,10.0,-100.00,NNW,328,2.0,4.0,90,-99.99,,,-99.99,,2013-02-10 17:52:00,
2013-02-10 12:00:00,15.0,11.0,-100.00,NNW,343,3.0,6.0,85,-99.99,,,-99.99,,2013-02-10 19:00:00,
2013-02-10 12:32:00,15.0,11.0,-100.00,NNW,343,3.0,6.0,85,-99.99,,,-99.99,,2013-02-10 19:32:00,
2013-02-10 12:43:00,15.0,11.0,-100.00,NNW,343,3.0,6.0,85,-99.99,,,-99.99,,2013-02-10 19:43:00,
2013-02-10 12:52:00,15.0,11.0,-100.00,NNW,343,3.0,6.0,85,-99.99,,,-99.99,,2013-02-10 19:52:00,
2013-02-10 14:00:00,14.0,11.0,-100.00,NNW,344,2.0,4.0,86,-99.99,,,-99.99,,2013-02-10 21:00:00,
2013-02-10 14:32:00,14.0,11.0,-100.00,NNW,344,2.0,4.0,86,-99.99,,,-99.99,,2013-02-10 21:32:00,
2013-02-10 14:42:00,14.0,11.0,-100.00,NNW,344,2.0,4.0,86,-99.99,,,-99.99,,2013-02-10 21:42:00,
2013-02-10 14:52:00,14.0,11.0,-100.00,NNW,344,2.0,4.0,86,-99.99,,,-99.99,,2013-02-10 21:52:00,
2013-02-10 16:00:00,14.0,12.0,-100.00,North,4,2.0,4.0,89,-99.99,,,-99.99,,2013-02-10 23:00:00,
2013-02-10 16:32:00,14.0,12.0,-100.00,North,4,2.0,4.0,89,-99.99,,,-99.99,,2013-02-10 23:32:00,
2013-02-10 16:42:00,14.0,12.0,-100.00,North,4,2.0,4.0,89,-99.99,,,-99.99,,2013-02-10 23:42:00,
2013-02-10 16:52:00,14.0,12.0,-100.00,North,4,2.0,4.0,89,-99.99,,,-99.99,,2013-02-10 23:52:00,
2013-02-10 20:00:00,8.0,6.0,-100.00,NW,326,1.0,4.0,93,-99.99,,,-99.99,,2013-02-11 03:00:00,
2013-02-10 20:32:00,8.0,6.0,-100.00,NW,326,1.0,4.0,93,-99.99,,,-99.99,,2013-02-11 03:32:00,
2013-02-10 20:42:00,8.0,6.0,-100.00,NW,326,1.0,4.0,93,-99.99,,,-99.99,,2013-02-11 03:42:00,
2013-02-10 20:52:00,8.0,6.0,-100.00,NW,326,1.0,4.0,93,-99.99,,,-99.99,,2013-02-11 03:52:00,
2013-02-10 22:00:00,8.0,6.0,-100.00,North,0,1.0,2.0,93,-99.99,,,-99.99,,2013-02-11 05:00:00,
2013-02-10 22:32:00,8.0,6.0,-100.00,North,0,1.0,2.0,93,-99.99,,,-99.99,,2013-02-11 05:32:00,
2013-02-10 22:42:00,8.0,6.0,-100.00,North,0,1.0,2.0,93,-99.99,,,-99.99,,2013-02-11 05:42:00,
2013-02-10 22:52:00,8.0,6.0,-100.00,North,0,1.0,2.0,93,-99.99,,,-99.99,,2013-02-11 05:52:00,